sensor_id;sensor_type;location;lat;lon;timestamp;P1;durP1;ratioP1;P2;durP2;ratioP2
438;SDS011;206;48.782;9.252;2022-10-28T00:02:17;12.07;;;8.03;;
438;SDS011;206;48.782;9.252;2022-10-28T00:04:43;21.77;;;10.83;;
438;SDS011;206;48.782;9.252;2022-10-28T00:07:08;16.13;;;9.10;;
438;SDS011;206;48.782;9.252;2022-10-28T00:09:34;14.67;;;8.10;;
438;SDS011;206;48.782;9.252;2022-10-28T00:12:00;14.20;;;8.70;;
438;SDS011;206;48.782;9.252;2022-10-28T00:14:25;10.67;;;7.80;;
438;SDS011;206;48.782;9.252;2022-10-28T00:16:51;12.83;;;8.57;;
438;SDS011;206;48.782;9.252;2022-10-28T00:19:17;18.03;;;8.47;;
438;SDS011;206;48.782;9.252;2022-10-28T00:21:42;14.13;;;9.63;;
438;SDS011;206;48.782;9.252;2022-10-28T00:24:09;11.70;;;7.80;;
438;SDS011;206;48.782;9.252;2022-10-28T00:26:37;19.80;;;9.60;;
438;SDS011;206;48.782;9.252;2022-10-28T00:29:07;15.30;;;9.53;;
438;SDS011;206;48.782;9.252;2022-10-28T00:31:35;13.60;;;9.77;;
438;SDS011;206;48.782;9.252;2022-10-28T00:34:03;18.53;;;8.90;;
438;SDS011;206;48.782;9.252;2022-10-28T00:36:34;19.83;;;8.20;;
438;SDS011;206;48.782;9.252;2022-10-28T00:39:01;19.63;;;8.80;;
438;SDS011;206;48.782;9.252;2022-10-28T00:41:29;17.90;;;8.37;;
438;SDS011;206;48.782;9.252;2022-10-28T00:44:01;15.40;;;7.80;;
438;SDS011;206;48.782;9.252;2022-10-28T00:46:46;17.30;;;8.20;;
438;SDS011;206;48.782;9.252;2022-10-28T00:51:46;13.47;;;9.40;;
438;SDS011;206;48.782;9.252;2022-10-28T00:54:15;14.13;;;7.13;;
438;SDS011;206;48.782;9.252;2022-10-28T00:56:43;19.50;;;8.47;;
438;SDS011;206;48.782;9.252;2022-10-28T00:59:14;16.50;;;8.30;;
438;SDS011;206;48.782;9.252;2022-10-28T01:01:46;11.67;;;7.50;;
438;SDS011;206;48.782;9.252;2022-10-28T01:04:12;15.40;;;7.67;;
438;SDS011;206;48.782;9.252;2022-10-28T01:06:38;16.97;;;7.97;;
438;SDS011;206;48.782;9.252;2022-10-28T01:09:05;11.17;;;7.67;;
438;SDS011;206;48.782;9.252;2022-10-28T01:14:24;11.73;;;8.17;;
438;SDS011;206;48.782;9.252;2022-10-28T01:20:14;12.67;;;8.47;;
438;SDS011;206;48.782;9.252;2022-10-28T01:23:10;16.80;;;9.27;;
438;SDS011;206;48.782;9.252;2022-10-28T01:25:46;16.90;;;8.40;;
438;SDS011;206;48.782;9.252;2022-10-28T01:31:14;16.20;;;8.70;;
438;SDS011;206;48.782;9.252;2022-10-28T01:33:51;13.80;;;7.70;;
438;SDS011;206;48.782;9.252;2022-10-28T01:36:40;17.03;;;8.77;;
438;SDS011;206;48.782;9.252;2022-10-28T01:39:29;12.50;;;7.80;;
438;SDS011;206;48.782;9.252;2022-10-28T01:42:39;9.57;;;7.33;;
438;SDS011;206;48.782;9.252;2022-10-28T01:45:18;18.23;;;8.83;;
438;SDS011;206;48.782;9.252;2022-10-28T01:48:03;14.90;;;8.33;;
438;SDS011;206;48.782;9.252;2022-10-28T01:50:40;29.90;;;9.03;;
438;SDS011;206;48.782;9.252;2022-10-28T01:53:22;17.33;;;9.20;;
438;SDS011;206;48.782;9.252;2022-10-28T01:55:52;12.03;;;7.90;;
438;SDS011;206;48.782;9.252;2022-10-28T01:58:24;10.37;;;8.40;;
438;SDS011;206;48.782;9.252;2022-10-28T02:00:54;17.50;;;8.30;;
438;SDS011;206;48.782;9.252;2022-10-28T02:03:21;11.17;;;8.23;;
438;SDS011;206;48.782;9.252;2022-10-28T02:05:48;12.47;;;9.67;;
438;SDS011;206;48.782;9.252;2022-10-28T02:13:36;14.27;;;9.53;;
438;SDS011;206;48.782;9.252;2022-10-28T02:21:35;17.60;;;9.80;;
438;SDS011;206;48.782;9.252;2022-10-28T02:27:23;17.33;;;8.20;;
438;SDS011;206;48.782;9.252;2022-10-28T02:30:06;14.70;;;8.20;;
438;SDS011;206;48.782;9.252;2022-10-28T02:32:34;9.17;;;7.97;;
438;SDS011;206;48.782;9.252;2022-10-28T02:35:05;12.83;;;8.80;;
438;SDS011;206;48.782;9.252;2022-10-28T02:37:36;12.80;;;8.93;;
438;SDS011;206;48.782;9.252;2022-10-28T02:40:05;10.27;;;8.40;;
438;SDS011;206;48.782;9.252;2022-10-28T02:42:36;14.50;;;8.50;;
438;SDS011;206;48.782;9.252;2022-10-28T02:45:14;20.50;;;9.57;;
438;SDS011;206;48.782;9.252;2022-10-28T02:47:45;9.10;;;7.53;;
438;SDS011;206;48.782;9.252;2022-10-28T02:50:16;16.97;;;7.30;;
438;SDS011;206;48.782;9.252;2022-10-28T02:52:45;13.10;;;7.70;;
438;SDS011;206;48.782;9.252;2022-10-28T02:55:15;16.87;;;7.80;;
438;SDS011;206;48.782;9.252;2022-10-28T02:57:43;11.73;;;7.80;;
438;SDS011;206;48.782;9.252;2022-10-28T03:00:17;16.07;;;8.30;;
438;SDS011;206;48.782;9.252;2022-10-28T03:02:45;15.47;;;7.73;;
438;SDS011;206;48.782;9.252;2022-10-28T03:05:11;12.80;;;7.60;;
438;SDS011;206;48.782;9.252;2022-10-28T03:07:36;12.27;;;7.73;;
438;SDS011;206;48.782;9.252;2022-10-28T03:10:02;16.43;;;7.97;;
438;SDS011;206;48.782;9.252;2022-10-28T03:12:28;13.03;;;8.20;;
438;SDS011;206;48.782;9.252;2022-10-28T03:14:53;9.40;;;7.10;;
438;SDS011;206;48.782;9.252;2022-10-28T03:17:19;14.10;;;7.77;;
438;SDS011;206;48.782;9.252;2022-10-28T03:19:44;13.53;;;7.53;;
438;SDS011;206;48.782;9.252;2022-10-28T03:22:10;13.97;;;8.07;;
438;SDS011;206;48.782;9.252;2022-10-28T03:24:36;11.87;;;7.60;;
438;SDS011;206;48.782;9.252;2022-10-28T03:27:01;11.57;;;8.00;;
438;SDS011;206;48.782;9.252;2022-10-28T03:29:27;14.90;;;7.97;;
438;SDS011;206;48.782;9.252;2022-10-28T03:31:53;12.23;;;8.63;;
438;SDS011;206;48.782;9.252;2022-10-28T03:34:18;17.10;;;8.60;;
438;SDS011;206;48.782;9.252;2022-10-28T03:36:44;19.37;;;7.37;;
438;SDS011;206;48.782;9.252;2022-10-28T03:39:10;12.67;;;7.43;;
438;SDS011;206;48.782;9.252;2022-10-28T03:41:35;19.40;;;9.10;;
438;SDS011;206;48.782;9.252;2022-10-28T03:44:01;14.90;;;9.57;;
438;SDS011;206;48.782;9.252;2022-10-28T03:46:26;15.60;;;9.60;;
438;SDS011;206;48.782;9.252;2022-10-28T03:48:52;23.93;;;8.37;;
438;SDS011;206;48.782;9.252;2022-10-28T03:51:17;21.00;;;10.10;;
438;SDS011;206;48.782;9.252;2022-10-28T03:53:43;22.60;;;9.07;;
438;SDS011;206;48.782;9.252;2022-10-28T03:56:08;19.50;;;9.00;;
438;SDS011;206;48.782;9.252;2022-10-28T03:58:35;21.53;;;10.43;;
438;SDS011;206;48.782;9.252;2022-10-28T04:01:01;9.53;;;7.30;;
438;SDS011;206;48.782;9.252;2022-10-28T04:03:27;12.93;;;7.93;;
438;SDS011;206;48.782;9.252;2022-10-28T04:05:52;15.50;;;10.23;;
438;SDS011;206;48.782;9.252;2022-10-28T04:08:18;16.87;;;9.20;;
438;SDS011;206;48.782;9.252;2022-10-28T04:10:45;11.60;;;7.70;;
438;SDS011;206;48.782;9.252;2022-10-28T04:13:11;17.23;;;7.97;;
438;SDS011;206;48.782;9.252;2022-10-28T04:15:37;10.67;;;9.23;;
438;SDS011;206;48.782;9.252;2022-10-28T04:18:03;13.30;;;6.83;;
438;SDS011;206;48.782;9.252;2022-10-28T04:20:29;12.40;;;7.87;;
438;SDS011;206;48.782;9.252;2022-10-28T04:22:55;17.13;;;7.60;;
438;SDS011;206;48.782;9.252;2022-10-28T04:25:21;16.70;;;8.23;;
438;SDS011;206;48.782;9.252;2022-10-28T04:27:47;10.70;;;7.00;;
438;SDS011;206;48.782;9.252;2022-10-28T04:30:12;12.73;;;8.07;;
438;SDS011;206;48.782;9.252;2022-10-28T04:32:39;10.47;;;6.73;;
438;SDS011;206;48.782;9.252;2022-10-28T04:35:05;14.80;;;7.63;;
438;SDS011;206;48.782;9.252;2022-10-28T04:37:31;8.43;;;6.20;;
438;SDS011;206;48.782;9.252;2022-10-28T04:39:57;16.27;;;8.20;;
438;SDS011;206;48.782;9.252;2022-10-28T04:42:22;12.10;;;7.10;;
438;SDS011;206;48.782;9.252;2022-10-28T04:44:48;12.30;;;7.27;;
438;SDS011;206;48.782;9.252;2022-10-28T04:47:14;13.70;;;6.87;;
438;SDS011;206;48.782;9.252;2022-10-28T04:49:41;11.10;;;6.50;;
438;SDS011;206;48.782;9.252;2022-10-28T04:52:06;13.13;;;8.73;;
438;SDS011;206;48.782;9.252;2022-10-28T04:54:32;17.23;;;9.10;;
438;SDS011;206;48.782;9.252;2022-10-28T04:56:57;22.13;;;7.33;;
438;SDS011;206;48.782;9.252;2022-10-28T04:59:23;14.90;;;7.63;;
438;SDS011;206;48.782;9.252;2022-10-28T05:01:48;11.70;;;7.77;;
438;SDS011;206;48.782;9.252;2022-10-28T05:04:14;11.33;;;7.50;;
438;SDS011;206;48.782;9.252;2022-10-28T05:06:40;12.50;;;8.40;;
438;SDS011;206;48.782;9.252;2022-10-28T05:09:05;12.73;;;6.80;;
438;SDS011;206;48.782;9.252;2022-10-28T05:11:31;18.10;;;7.90;;
438;SDS011;206;48.782;9.252;2022-10-28T05:13:56;15.93;;;7.83;;
438;SDS011;206;48.782;9.252;2022-10-28T05:16:22;10.70;;;8.10;;
438;SDS011;206;48.782;9.252;2022-10-28T05:18:48;10.93;;;7.80;;
438;SDS011;206;48.782;9.252;2022-10-28T05:21:13;11.73;;;8.20;;
438;SDS011;206;48.782;9.252;2022-10-28T05:23:39;13.53;;;7.40;;
438;SDS011;206;48.782;9.252;2022-10-28T05:26:04;9.70;;;7.30;;
438;SDS011;206;48.782;9.252;2022-10-28T05:28:30;14.33;;;7.17;;
438;SDS011;206;48.782;9.252;2022-10-28T05:30:56;10.50;;;6.73;;
438;SDS011;206;48.782;9.252;2022-10-28T05:33:21;16.50;;;8.43;;
438;SDS011;206;48.782;9.252;2022-10-28T05:35:47;12.43;;;7.97;;
438;SDS011;206;48.782;9.252;2022-10-28T05:38:13;17.27;;;6.80;;
438;SDS011;206;48.782;9.252;2022-10-28T05:40:39;11.30;;;7.80;;
438;SDS011;206;48.782;9.252;2022-10-28T05:43:04;10.53;;;7.07;;
438;SDS011;206;48.782;9.252;2022-10-28T05:45:30;19.60;;;8.83;;
438;SDS011;206;48.782;9.252;2022-10-28T05:47:56;13.93;;;7.90;;
438;SDS011;206;48.782;9.252;2022-10-28T05:50:22;16.30;;;7.30;;
438;SDS011;206;48.782;9.252;2022-10-28T05:52:48;8.30;;;6.87;;
438;SDS011;206;48.782;9.252;2022-10-28T05:55:16;10.10;;;5.57;;
438;SDS011;206;48.782;9.252;2022-10-28T05:57:45;8.90;;;6.33;;
438;SDS011;206;48.782;9.252;2022-10-28T06:00:12;10.70;;;6.80;;
438;SDS011;206;48.782;9.252;2022-10-28T06:02:39;18.03;;;9.73;;
438;SDS011;206;48.782;9.252;2022-10-28T06:05:05;8.53;;;6.57;;
438;SDS011;206;48.782;9.252;2022-10-28T06:07:31;9.33;;;5.27;;
438;SDS011;206;48.782;9.252;2022-10-28T06:09:58;7.23;;;6.60;;
438;SDS011;206;48.782;9.252;2022-10-28T06:12:25;10.27;;;6.97;;
438;SDS011;206;48.782;9.252;2022-10-28T06:14:50;8.53;;;6.10;;
438;SDS011;206;48.782;9.252;2022-10-28T06:17:16;7.30;;;5.83;;
438;SDS011;206;48.782;9.252;2022-10-28T06:19:42;11.83;;;7.50;;
438;SDS011;206;48.782;9.252;2022-10-28T06:22:07;8.50;;;6.67;;
438;SDS011;206;48.782;9.252;2022-10-28T06:24:33;10.53;;;5.33;;
438;SDS011;206;48.782;9.252;2022-10-28T06:26:58;9.73;;;6.97;;
438;SDS011;206;48.782;9.252;2022-10-28T06:29:24;16.37;;;6.23;;
438;SDS011;206;48.782;9.252;2022-10-28T06:31:50;9.93;;;6.53;;
438;SDS011;206;48.782;9.252;2022-10-28T06:34:15;7.50;;;6.83;;
438;SDS011;206;48.782;9.252;2022-10-28T06:36:41;13.50;;;6.47;;
438;SDS011;206;48.782;9.252;2022-10-28T06:39:06;11.80;;;6.40;;
438;SDS011;206;48.782;9.252;2022-10-28T06:41:32;14.17;;;6.57;;
438;SDS011;206;48.782;9.252;2022-10-28T06:43:58;12.20;;;6.67;;
438;SDS011;206;48.782;9.252;2022-10-28T06:46:24;13.00;;;6.30;;
438;SDS011;206;48.782;9.252;2022-10-28T06:48:49;17.20;;;5.90;;
438;SDS011;206;48.782;9.252;2022-10-28T06:51:17;15.90;;;7.03;;
438;SDS011;206;48.782;9.252;2022-10-28T06:53:42;11.83;;;6.43;;
438;SDS011;206;48.782;9.252;2022-10-28T06:56:12;19.90;;;6.70;;
438;SDS011;206;48.782;9.252;2022-10-28T06:58:37;21.80;;;6.20;;
438;SDS011;206;48.782;9.252;2022-10-28T07:01:04;11.60;;;6.80;;
438;SDS011;206;48.782;9.252;2022-10-28T07:03:29;11.57;;;6.40;;
438;SDS011;206;48.782;9.252;2022-10-28T07:05:56;12.33;;;7.37;;
438;SDS011;206;48.782;9.252;2022-10-28T07:08:22;17.23;;;6.50;;
438;SDS011;206;48.782;9.252;2022-10-28T07:10:52;9.50;;;5.60;;
438;SDS011;206;48.782;9.252;2022-10-28T07:13:22;25.43;;;6.70;;
438;SDS011;206;48.782;9.252;2022-10-28T07:15:51;14.73;;;6.07;;
438;SDS011;206;48.782;9.252;2022-10-28T07:18:17;12.67;;;6.30;;
438;SDS011;206;48.782;9.252;2022-10-28T07:20:44;10.97;;;5.87;;
438;SDS011;206;48.782;9.252;2022-10-28T07:23:09;10.70;;;6.63;;
438;SDS011;206;48.782;9.252;2022-10-28T07:25:35;11.60;;;6.93;;
438;SDS011;206;48.782;9.252;2022-10-28T07:28:00;13.60;;;7.10;;
438;SDS011;206;48.782;9.252;2022-10-28T07:30:27;11.80;;;6.80;;
438;SDS011;206;48.782;9.252;2022-10-28T07:32:53;10.53;;;6.87;;
438;SDS011;206;48.782;9.252;2022-10-28T07:35:19;13.40;;;7.40;;
438;SDS011;206;48.782;9.252;2022-10-28T07:37:44;16.50;;;8.10;;
438;SDS011;206;48.782;9.252;2022-10-28T07:40:10;10.97;;;6.50;;
438;SDS011;206;48.782;9.252;2022-10-28T07:42:36;14.87;;;6.77;;
438;SDS011;206;48.782;9.252;2022-10-28T07:45:02;16.70;;;8.20;;
438;SDS011;206;48.782;9.252;2022-10-28T07:47:28;12.30;;;7.83;;
438;SDS011;206;48.782;9.252;2022-10-28T07:49:54;12.37;;;7.63;;
438;SDS011;206;48.782;9.252;2022-10-28T07:52:20;21.10;;;8.20;;
438;SDS011;206;48.782;9.252;2022-10-28T07:54:46;13.03;;;6.63;;
438;SDS011;206;48.782;9.252;2022-10-28T07:57:11;11.30;;;6.67;;
438;SDS011;206;48.782;9.252;2022-10-28T07:59:37;12.13;;;6.40;;
438;SDS011;206;48.782;9.252;2022-10-28T08:02:02;9.13;;;6.20;;
438;SDS011;206;48.782;9.252;2022-10-28T08:04:29;8.57;;;6.00;;
438;SDS011;206;48.782;9.252;2022-10-28T08:06:55;13.17;;;6.53;;
438;SDS011;206;48.782;9.252;2022-10-28T08:09:21;13.27;;;6.00;;
438;SDS011;206;48.782;9.252;2022-10-28T08:11:46;11.43;;;6.60;;
438;SDS011;206;48.782;9.252;2022-10-28T08:14:12;12.73;;;6.70;;
438;SDS011;206;48.782;9.252;2022-10-28T08:16:38;9.93;;;6.77;;
438;SDS011;206;48.782;9.252;2022-10-28T08:19:03;14.23;;;7.57;;
438;SDS011;206;48.782;9.252;2022-10-28T08:21:29;13.93;;;8.57;;
438;SDS011;206;48.782;9.252;2022-10-28T08:23:54;20.40;;;9.13;;
438;SDS011;206;48.782;9.252;2022-10-28T08:26:20;18.40;;;9.03;;
438;SDS011;206;48.782;9.252;2022-10-28T08:28:46;15.47;;;8.00;;
438;SDS011;206;48.782;9.252;2022-10-28T08:31:11;20.70;;;9.60;;
438;SDS011;206;48.782;9.252;2022-10-28T08:33:38;14.40;;;8.80;;
438;SDS011;206;48.782;9.252;2022-10-28T08:36:06;15.77;;;9.87;;
438;SDS011;206;48.782;9.252;2022-10-28T08:38:34;19.83;;;9.50;;
438;SDS011;206;48.782;9.252;2022-10-28T08:41:06;17.50;;;9.57;;
438;SDS011;206;48.782;9.252;2022-10-28T08:49:02;17.03;;;9.03;;
438;SDS011;206;48.782;9.252;2022-10-28T08:54:05;11.90;;;9.33;;
438;SDS011;206;48.782;9.252;2022-10-28T08:56:44;13.10;;;8.53;;
438;SDS011;206;48.782;9.252;2022-10-28T08:59:15;17.33;;;8.00;;
438;SDS011;206;48.782;9.252;2022-10-28T09:01:49;16.40;;;8.63;;
438;SDS011;206;48.782;9.252;2022-10-28T09:07:07;11.53;;;8.17;;
438;SDS011;206;48.782;9.252;2022-10-28T09:09:44;17.20;;;8.67;;
438;SDS011;206;48.782;9.252;2022-10-28T09:12:14;23.00;;;8.93;;
438;SDS011;206;48.782;9.252;2022-10-28T09:17:36;13.33;;;7.57;;
438;SDS011;206;48.782;9.252;2022-10-28T09:20:20;15.63;;;7.13;;
438;SDS011;206;48.782;9.252;2022-10-28T09:36:37;12.17;;;6.73;;
438;SDS011;206;48.782;9.252;2022-10-28T09:39:08;11.37;;;6.53;;
438;SDS011;206;48.782;9.252;2022-10-28T09:41:46;14.50;;;6.93;;
438;SDS011;206;48.782;9.252;2022-10-28T09:44:16;9.33;;;5.30;;
438;SDS011;206;48.782;9.252;2022-10-28T09:46:44;15.30;;;6.87;;
438;SDS011;206;48.782;9.252;2022-10-28T09:49:17;10.10;;;6.93;;
438;SDS011;206;48.782;9.252;2022-10-28T09:51:49;17.00;;;9.90;;
438;SDS011;206;48.782;9.252;2022-10-28T09:54:35;15.53;;;8.23;;
438;SDS011;206;48.782;9.252;2022-10-28T09:57:04;16.60;;;7.60;;
438;SDS011;206;48.782;9.252;2022-10-28T09:59:30;10.53;;;7.03;;
438;SDS011;206;48.782;9.252;2022-10-28T10:01:56;13.93;;;7.80;;
438;SDS011;206;48.782;9.252;2022-10-28T10:04:22;12.53;;;5.93;;
438;SDS011;206;48.782;9.252;2022-10-28T10:06:51;7.87;;;5.00;;
438;SDS011;206;48.782;9.252;2022-10-28T10:09:31;8.60;;;5.50;;
438;SDS011;206;48.782;9.252;2022-10-28T10:11:59;13.03;;;6.77;;
438;SDS011;206;48.782;9.252;2022-10-28T10:14:36;16.43;;;7.67;;
438;SDS011;206;48.782;9.252;2022-10-28T10:17:12;14.33;;;7.17;;
438;SDS011;206;48.782;9.252;2022-10-28T10:19:57;15.60;;;7.10;;
438;SDS011;206;48.782;9.252;2022-10-28T10:22:32;11.30;;;6.60;;
438;SDS011;206;48.782;9.252;2022-10-28T10:25:00;10.10;;;5.87;;
438;SDS011;206;48.782;9.252;2022-10-28T10:27:28;10.60;;;5.80;;
438;SDS011;206;48.782;9.252;2022-10-28T10:29:55;14.77;;;5.80;;
438;SDS011;206;48.782;9.252;2022-10-28T10:37:34;11.97;;;6.20;;
438;SDS011;206;48.782;9.252;2022-10-28T10:42:49;8.40;;;4.27;;
438;SDS011;206;48.782;9.252;2022-10-28T10:47:43;16.47;;;5.37;;
438;SDS011;206;48.782;9.252;2022-10-28T10:50:18;15.00;;;4.90;;
438;SDS011;206;48.782;9.252;2022-10-28T10:52:52;19.10;;;5.10;;
438;SDS011;206;48.782;9.252;2022-10-28T10:55:41;10.33;;;5.43;;
438;SDS011;206;48.782;9.252;2022-10-28T10:58:13;9.47;;;4.93;;
438;SDS011;206;48.782;9.252;2022-10-28T11:00:46;13.07;;;5.50;;
438;SDS011;206;48.782;9.252;2022-10-28T11:03:37;15.67;;;6.03;;
438;SDS011;206;48.782;9.252;2022-10-28T11:06:04;9.83;;;6.10;;
438;SDS011;206;48.782;9.252;2022-10-28T11:08:33;11.33;;;7.10;;
438;SDS011;206;48.782;9.252;2022-10-28T11:14:03;16.93;;;6.97;;
438;SDS011;206;48.782;9.252;2022-10-28T11:16:29;9.90;;;6.30;;
438;SDS011;206;48.782;9.252;2022-10-28T11:18:55;6.30;;;5.20;;
438;SDS011;206;48.782;9.252;2022-10-28T11:24:16;9.90;;;6.00;;
438;SDS011;206;48.782;9.252;2022-10-28T11:26:54;12.37;;;5.07;;
438;SDS011;206;48.782;9.252;2022-10-28T11:29:28;9.40;;;4.50;;
438;SDS011;206;48.782;9.252;2022-10-28T11:39:50;18.33;;;5.00;;
438;SDS011;206;48.782;9.252;2022-10-28T11:42:35;10.13;;;5.30;;
438;SDS011;206;48.782;9.252;2022-10-28T11:47:45;15.53;;;5.70;;
438;SDS011;206;48.782;9.252;2022-10-28T11:50:30;13.97;;;7.97;;
438;SDS011;206;48.782;9.252;2022-10-28T11:58:48;15.83;;;8.07;;
438;SDS011;206;48.782;9.252;2022-10-28T12:09:39;11.07;;;4.53;;
438;SDS011;206;48.782;9.252;2022-10-28T12:14:59;24.17;;;5.10;;
438;SDS011;206;48.782;9.252;2022-10-28T12:17:39;13.80;;;4.43;;
438;SDS011;206;48.782;9.252;2022-10-28T12:22:47;13.40;;;6.30;;
438;SDS011;206;48.782;9.252;2022-10-28T12:25:26;20.20;;;6.83;;
438;SDS011;206;48.782;9.252;2022-10-28T12:27:56;20.50;;;5.43;;
438;SDS011;206;48.782;9.252;2022-10-28T12:30:26;12.70;;;5.80;;
438;SDS011;206;48.782;9.252;2022-10-28T12:33:41;11.17;;;4.83;;
438;SDS011;206;48.782;9.252;2022-10-28T12:35:42;9.30;;;5.20;;
438;SDS011;206;48.782;9.252;2022-10-28T12:38:13;14.50;;;6.07;;
438;SDS011;206;48.782;9.252;2022-10-28T12:40:42;10.47;;;4.83;;
438;SDS011;206;48.782;9.252;2022-10-28T12:43:15;13.73;;;4.20;;
438;SDS011;206;48.782;9.252;2022-10-28T12:46:17;13.70;;;5.50;;
438;SDS011;206;48.782;9.252;2022-10-28T12:49:02;11.20;;;5.77;;
438;SDS011;206;48.782;9.252;2022-10-28T12:51:35;9.80;;;5.37;;
438;SDS011;206;48.782;9.252;2022-10-28T12:56:53;13.63;;;4.83;;
438;SDS011;206;48.782;9.252;2022-10-28T12:59:28;11.47;;;4.60;;
438;SDS011;206;48.782;9.252;2022-10-28T13:01:55;9.83;;;4.43;;
438;SDS011;206;48.782;9.252;2022-10-28T13:04:25;11.00;;;4.83;;
438;SDS011;206;48.782;9.252;2022-10-28T13:09:52;10.63;;;5.17;;
438;SDS011;206;48.782;9.252;2022-10-28T13:18:09;11.50;;;4.97;;
438;SDS011;206;48.782;9.252;2022-10-28T13:20:46;7.90;;;5.50;;
438;SDS011;206;48.782;9.252;2022-10-28T13:26:15;18.20;;;5.53;;
438;SDS011;206;48.782;9.252;2022-10-28T13:28:48;7.00;;;4.80;;
438;SDS011;206;48.782;9.252;2022-10-28T13:31:18;12.00;;;4.90;;
438;SDS011;206;48.782;9.252;2022-10-28T13:33:54;13.40;;;5.67;;
438;SDS011;206;48.782;9.252;2022-10-28T13:36:29;10.93;;;6.10;;
438;SDS011;206;48.782;9.252;2022-10-28T13:39:00;10.73;;;6.50;;
438;SDS011;206;48.782;9.252;2022-10-28T13:41:32;12.17;;;4.77;;
438;SDS011;206;48.782;9.252;2022-10-28T13:49:25;10.70;;;5.47;;
438;SDS011;206;48.782;9.252;2022-10-28T13:51:51;12.07;;;5.57;;
438;SDS011;206;48.782;9.252;2022-10-28T13:57:12;8.73;;;5.23;;
438;SDS011;206;48.782;9.252;2022-10-28T13:59:58;10.00;;;5.70;;
438;SDS011;206;48.782;9.252;2022-10-28T14:02:35;10.50;;;6.80;;
438;SDS011;206;48.782;9.252;2022-10-28T14:13:19;11.90;;;7.07;;
438;SDS011;206;48.782;9.252;2022-10-28T14:15:46;19.30;;;7.37;;
438;SDS011;206;48.782;9.252;2022-10-28T14:20:39;13.20;;;5.50;;
438;SDS011;206;48.782;9.252;2022-10-28T14:38:46;16.93;;;7.27;;
438;SDS011;206;48.782;9.252;2022-10-28T14:47:28;10.80;;;6.50;;
438;SDS011;206;48.782;9.252;2022-10-28T14:50:19;13.57;;;7.30;;
438;SDS011;206;48.782;9.252;2022-10-28T14:52:49;14.23;;;7.33;;
438;SDS011;206;48.782;9.252;2022-10-28T14:55:20;14.10;;;6.47;;
438;SDS011;206;48.782;9.252;2022-10-28T15:00:42;15.03;;;7.10;;
438;SDS011;206;48.782;9.252;2022-10-28T15:03:19;8.47;;;4.97;;
438;SDS011;206;48.782;9.252;2022-10-28T15:05:44;9.10;;;5.47;;
438;SDS011;206;48.782;9.252;2022-10-28T15:08:10;12.40;;;6.50;;
438;SDS011;206;48.782;9.252;2022-10-28T15:10:35;21.03;;;5.47;;
438;SDS011;206;48.782;9.252;2022-10-28T15:13:01;12.67;;;5.67;;
438;SDS011;206;48.782;9.252;2022-10-28T15:15:29;21.70;;;6.20;;
438;SDS011;206;48.782;9.252;2022-10-28T15:17:56;11.30;;;5.50;;
438;SDS011;206;48.782;9.252;2022-10-28T15:20:24;9.50;;;5.60;;
438;SDS011;206;48.782;9.252;2022-10-28T15:22:51;11.40;;;4.40;;
438;SDS011;206;48.782;9.252;2022-10-28T15:25:21;15.43;;;4.57;;
438;SDS011;206;48.782;9.252;2022-10-28T15:27:50;7.57;;;5.17;;
438;SDS011;206;48.782;9.252;2022-10-28T15:30:17;14.33;;;6.40;;
438;SDS011;206;48.782;9.252;2022-10-28T15:32:47;20.30;;;5.70;;
438;SDS011;206;48.782;9.252;2022-10-28T15:37:54;9.43;;;4.10;;
438;SDS011;206;48.782;9.252;2022-10-28T15:40:28;6.23;;;4.33;;
438;SDS011;206;48.782;9.252;2022-10-28T15:42:59;14.17;;;5.00;;
438;SDS011;206;48.782;9.252;2022-10-28T15:45:27;11.70;;;4.77;;
438;SDS011;206;48.782;9.252;2022-10-28T15:47:55;9.20;;;4.83;;
438;SDS011;206;48.782;9.252;2022-10-28T15:50:24;14.53;;;5.90;;
438;SDS011;206;48.782;9.252;2022-10-28T15:52:53;20.13;;;5.77;;
438;SDS011;206;48.782;9.252;2022-10-28T15:55:39;16.00;;;6.80;;
438;SDS011;206;48.782;9.252;2022-10-28T16:00:34;11.97;;;4.67;;
438;SDS011;206;48.782;9.252;2022-10-28T16:03:01;12.83;;;6.33;;
438;SDS011;206;48.782;9.252;2022-10-28T16:08:12;12.30;;;6.87;;
438;SDS011;206;48.782;9.252;2022-10-28T16:10:48;13.23;;;6.63;;
438;SDS011;206;48.782;9.252;2022-10-28T16:13:23;12.00;;;6.37;;
438;SDS011;206;48.782;9.252;2022-10-28T16:18:48;15.53;;;6.70;;
438;SDS011;206;48.782;9.252;2022-10-28T16:21:23;15.03;;;6.77;;
438;SDS011;206;48.782;9.252;2022-10-28T16:23:51;16.90;;;7.10;;
438;SDS011;206;48.782;9.252;2022-10-28T16:26:21;11.57;;;6.47;;
438;SDS011;206;48.782;9.252;2022-10-28T16:28:47;14.20;;;6.67;;
438;SDS011;206;48.782;9.252;2022-10-28T16:31:14;17.53;;;6.67;;
438;SDS011;206;48.782;9.252;2022-10-28T16:33:41;12.50;;;7.37;;
438;SDS011;206;48.782;9.252;2022-10-28T16:36:07;10.43;;;6.67;;
438;SDS011;206;48.782;9.252;2022-10-28T16:38:33;16.73;;;8.00;;
438;SDS011;206;48.782;9.252;2022-10-28T16:40:59;15.60;;;8.83;;
438;SDS011;206;48.782;9.252;2022-10-28T16:43:27;19.20;;;6.83;;
438;SDS011;206;48.782;9.252;2022-10-28T16:45:54;16.30;;;6.50;;
438;SDS011;206;48.782;9.252;2022-10-28T16:48:22;12.17;;;7.47;;
438;SDS011;206;48.782;9.252;2022-10-28T16:50:49;16.57;;;6.90;;
438;SDS011;206;48.782;9.252;2022-10-28T16:53:20;19.03;;;7.70;;
438;SDS011;206;48.782;9.252;2022-10-28T16:55:46;11.93;;;7.23;;
438;SDS011;206;48.782;9.252;2022-10-28T16:58:12;19.70;;;7.47;;
438;SDS011;206;48.782;9.252;2022-10-28T17:00:38;20.63;;;8.10;;
438;SDS011;206;48.782;9.252;2022-10-28T17:03:04;12.43;;;6.27;;
438;SDS011;206;48.782;9.252;2022-10-28T17:05:31;11.00;;;6.57;;
438;SDS011;206;48.782;9.252;2022-10-28T17:07:57;13.80;;;6.97;;
438;SDS011;206;48.782;9.252;2022-10-28T17:10:24;11.30;;;6.73;;
438;SDS011;206;48.782;9.252;2022-10-28T17:12:50;16.83;;;7.80;;
438;SDS011;206;48.782;9.252;2022-10-28T17:15:16;15.53;;;6.50;;
438;SDS011;206;48.782;9.252;2022-10-28T17:17:43;14.83;;;6.67;;
438;SDS011;206;48.782;9.252;2022-10-28T17:20:13;12.90;;;6.60;;
438;SDS011;206;48.782;9.252;2022-10-28T17:22:38;17.53;;;7.27;;
438;SDS011;206;48.782;9.252;2022-10-28T17:25:05;11.13;;;7.37;;
438;SDS011;206;48.782;9.252;2022-10-28T17:27:31;13.67;;;7.97;;
438;SDS011;206;48.782;9.252;2022-10-28T17:29:56;19.80;;;8.57;;
438;SDS011;206;48.782;9.252;2022-10-28T17:32:22;17.50;;;6.70;;
438;SDS011;206;48.782;9.252;2022-10-28T17:34:48;16.87;;;8.83;;
438;SDS011;206;48.782;9.252;2022-10-28T17:37:14;14.43;;;8.53;;
438;SDS011;206;48.782;9.252;2022-10-28T17:39:40;14.73;;;7.83;;
438;SDS011;206;48.782;9.252;2022-10-28T17:42:06;10.13;;;6.80;;
438;SDS011;206;48.782;9.252;2022-10-28T17:44:32;15.47;;;8.60;;
438;SDS011;206;48.782;9.252;2022-10-28T17:46:58;18.00;;;8.30;;
438;SDS011;206;48.782;9.252;2022-10-28T17:49:24;20.67;;;8.60;;
438;SDS011;206;48.782;9.252;2022-10-28T17:51:50;18.10;;;10.90;;
438;SDS011;206;48.782;9.252;2022-10-28T17:54:17;17.67;;;9.23;;
438;SDS011;206;48.782;9.252;2022-10-28T17:56:42;16.10;;;10.10;;
438;SDS011;206;48.782;9.252;2022-10-28T17:59:09;14.43;;;9.30;;
438;SDS011;206;48.782;9.252;2022-10-28T18:01:35;17.47;;;10.60;;
438;SDS011;206;48.782;9.252;2022-10-28T18:04:00;19.80;;;10.30;;
438;SDS011;206;48.782;9.252;2022-10-28T18:06:27;20.20;;;10.00;;
438;SDS011;206;48.782;9.252;2022-10-28T18:08:53;13.27;;;10.23;;
438;SDS011;206;48.782;9.252;2022-10-28T18:11:19;20.20;;;11.10;;
438;SDS011;206;48.782;9.252;2022-10-28T18:13:45;14.63;;;9.63;;
438;SDS011;206;48.782;9.252;2022-10-28T18:16:14;22.60;;;11.20;;
438;SDS011;206;48.782;9.252;2022-10-28T18:18:45;15.50;;;9.17;;
438;SDS011;206;48.782;9.252;2022-10-28T18:21:11;18.30;;;9.00;;
438;SDS011;206;48.782;9.252;2022-10-28T18:23:37;14.30;;;8.23;;
438;SDS011;206;48.782;9.252;2022-10-28T18:28:32;12.40;;;8.30;;
438;SDS011;206;48.782;9.252;2022-10-28T18:31:06;23.03;;;9.37;;
438;SDS011;206;48.782;9.252;2022-10-28T18:33:40;14.73;;;10.17;;
438;SDS011;206;48.782;9.252;2022-10-28T18:36:08;14.90;;;10.20;;